Time;durP1;ratioP1;P1;durP2;ratioP2;P2;SDS_P1;SDS_P2;PMS_P1;PMS_P2;Temp;Humidity;BMP_temperature;BMP_pressure;BME280_temperature;BME280_humidity;BME280_pressure;Samples;Min_cycle;Max_cycle;Signal;HPM_P1;HPM_P2
2022/10/12 00:01:24;;;;;;;0.50;0.50;;;-0.10;99.90;;;;;;5035942;28;20197;-67
2022/10/12 00:03:51;;;;;;;0.60;0.60;;;-0.10;99.90;;;;;;5035933;28;20217;-66
2022/10/12 00:06:22;;;;;;;0.73;0.73;;;0.00;99.90;;;;;;5053777;28;20200;-65
2022/10/12 00:08:50;;;;;;;0.60;0.60;;;0.00;99.90;;;;;;5053801;28;20185;-67
2022/10/12 00:11:19;;;;;;;0.60;0.60;;;0.00;99.90;;;;;;5059732;28;20207;-66
2022/10/12 00:13:45;;;;;;;0.80;0.80;;;0.00;99.90;;;;;;5073714;28;20211;-65
2022/10/12 00:16:14;;;;;;;0.60;0.60;;;0.10;99.90;;;;;;5073626;28;20280;-66
2022/10/12 00:18:40;;;;;;;0.65;0.65;;;0.10;99.90;;;;;;5073475;28;20196;-65
2022/10/12 00:21:08;;;;;;;0.63;0.63;;;0.00;99.90;;;;;;5055645;28;20215;-66
2022/10/12 00:23:35;;;;;;;0.70;0.70;;;0.00;99.90;;;;;;5073342;28;20606;-66
2022/10/12 00:26:06;;;;;;;0.60;0.60;;;0.10;99.90;;;;;;5073475;28;20266;-66
2022/10/12 00:28:33;;;;;;;0.60;0.60;;;0.20;99.90;;;;;;5073266;28;20250;-66
2022/10/12 00:30:59;;;;;;;0.70;0.70;;;0.30;99.90;;;;;;5073415;28;20198;-66
2022/10/12 00:33:27;;;;;;;0.50;0.50;;;0.40;99.90;;;;;;5073269;28;20670;-66
2022/10/12 00:35:53;;;;;;;0.80;0.80;;;0.40;99.90;;;;;;5073275;28;20199;-65
2022/10/12 00:38:20;;;;;;;0.60;0.60;;;0.50;99.90;;;;;;5073055;28;20185;-67
2022/10/12 00:40:46;;;;;;;0.60;0.60;;;0.50;99.90;;;;;;5060726;28;20205;-66
2022/10/12 00:43:45;;;;;;;0.60;0.60;;;0.50;99.90;;;;;;5051922;28;20296;-66
2022/10/12 00:46:14;;;;;;;0.60;0.60;;;0.50;99.90;;;;;;5035879;28;20676;-66
2022/10/12 00:48:40;;;;;;;0.50;0.50;;;0.60;99.90;;;;;;5052801;28;20201;-67
2022/10/12 00:51:08;;;;;;;0.70;0.70;;;0.60;99.90;;;;;;5053088;28;20193;-66
2022/10/12 00:53:39;;;;;;;0.70;0.70;;;0.60;99.90;;;;;;5052965;28;20221;-66
2022/10/12 00:56:11;;;;;;;0.70;0.70;;;0.60;99.90;;;;;;5052637;28;20194;-67
2022/10/12 00:58:37;;;;;;;0.50;0.50;;;0.50;99.90;;;;;;5052795;28;20683;-65
2022/10/12 01:01:04;;;;;;;0.70;0.70;;;0.50;99.90;;;;;;5052570;28;20201;-66
2022/10/12 01:03:31;;;;;;;0.60;0.60;;;0.40;99.90;;;;;;5052418;28;20194;-66
2022/10/12 01:05:57;;;;;;;0.60;0.60;;;0.30;99.90;;;;;;5052202;28;20193;-65
2022/10/12 01:08:23;;;;;;;0.63;0.63;;;0.20;99.90;;;;;;5065844;28;20204;-66
2022/10/12 01:10:49;;;;;;;0.60;0.60;;;0.10;99.90;;;;;;5054848;28;20197;-66
2022/10/12 01:13:14;;;;;;;0.50;0.50;;;0.00;99.90;;;;;;5072724;28;20255;-66
2022/10/12 01:15:56;;;;;;;0.63;0.63;;;-0.10;99.90;;;;;;5072738;28;20193;-66
2022/10/12 01:18:29;;;;;;;0.60;0.60;;;-0.20;99.90;;;;;;5072558;28;20184;-66
2022/10/12 01:21:28;;;;;;;0.50;0.50;;;-0.20;99.90;;;;;;5072778;28;20196;-64
2022/10/12 01:24:30;;;;;;;0.70;0.70;;;-0.30;99.90;;;;;;5072122;28;20691;-65
2022/10/12 01:27:13;;;;;;;0.60;0.60;;;-0.30;99.90;;;;;;5072720;28;20188;-66
2022/10/12 01:30:07;;;;;;;0.60;0.60;;;-0.40;99.90;;;;;;5054457;28;20204;-66
2022/10/12 01:32:40;;;;;;;0.70;0.70;;;-0.50;99.90;;;;;;5072394;28;20196;-64
2022/10/12 01:35:15;;;;;;;0.60;0.60;;;-0.50;99.90;;;;;;5072620;28;20216;-65
2022/10/12 01:38:02;;;;;;;0.63;0.63;;;-0.50;99.90;;;;;;5054499;28;20242;-66
2022/10/12 01:40:40;;;;;;;0.85;0.77;;;-0.40;99.90;;;;;;5052342;28;20193;-66
2022/10/12 01:43:07;;;;;;;0.65;0.65;;;-0.30;99.90;;;;;;5052357;28;20189;-67
2022/10/12 01:45:32;;;;;;;0.60;0.60;;;-0.10;99.90;;;;;;5052257;28;20668;-64
2022/10/12 01:47:58;;;;;;;0.75;0.75;;;0.00;99.90;;;;;;5052439;28;20193;-65
2022/10/12 01:50:32;;;;;;;0.80;0.80;;;0.00;99.90;;;;;;5052261;28;20185;-66
2022/10/12 01:53:00;;;;;;;0.70;0.70;;;0.10;99.90;;;;;;5034486;28;20201;-65
2022/10/12 01:55:49;;;;;;;0.60;0.60;;;0.10;99.90;;;;;;5052120;28;20229;-66
2022/10/12 01:58:43;;;;;;;0.65;0.65;;;0.10;99.90;;;;;;5026443;28;20204;-66
2022/10/12 02:01:25;;;;;;;0.60;0.60;;;0.10;99.90;;;;;;5051112;28;20201;-66
2022/10/12 02:04:07;;;;;;;0.70;0.70;;;0.10;99.90;;;;;;5059171;28;20658;-66
2022/10/12 02:06:49;;;;;;;0.60;0.60;;;0.20;99.90;;;;;;5072039;28;20199;-65
2022/10/12 02:09:25;;;;;;;0.80;0.80;;;0.10;99.90;;;;;;5072364;28;20189;-65
2022/10/12 02:11:53;;;;;;;0.70;0.70;;;0.10;99.90;;;;;;5072256;28;20213;-64
2022/10/12 02:14:25;;;;;;;0.63;0.63;;;0.10;99.90;;;;;;5072100;28;20659;-64
2022/10/12 02:16:54;;;;;;;0.70;0.70;;;0.10;99.90;;;;;;5075435;28;20205;-65
2022/10/12 02:19:27;;;;;;;0.60;0.60;;;0.00;99.90;;;;;;5076018;28;20613;-66
2022/10/12 02:21:56;;;;;;;0.60;0.60;;;0.00;99.90;;;;;;5076054;28;20283;-65
2022/10/12 02:24:23;;;;;;;0.68;0.68;;;-0.10;99.90;;;;;;5075568;28;20549;-66
2022/10/12 02:26:51;;;;;;;0.70;0.70;;;-0.20;99.90;;;;;;5057798;28;20285;-64
2022/10/12 02:29:25;;;;;;;0.70;0.70;;;-0.30;99.90;;;;;;5057678;28;20197;-65
2022/10/12 02:32:02;;;;;;;0.50;0.50;;;-0.30;99.90;;;;;;5075204;28;20586;-65
2022/10/12 02:34:41;;;;;;;0.70;0.70;;;-0.40;99.90;;;;;;5055457;28;20280;-65
2022/10/12 02:37:39;;;;;;;0.70;0.70;;;-0.40;99.90;;;;;;5054355;28;20255;-66
2022/10/12 02:40:15;;;;;;;0.60;0.60;;;-0.30;99.90;;;;;;5055420;28;20579;-64
2022/10/12 02:43:04;;;;;;;1.00;0.95;;;-0.30;99.90;;;;;;5036494;28;20742;-65
2022/10/12 02:45:33;;;;;;;0.60;0.60;;;-0.30;99.90;;;;;;5036773;28;20217;-66
2022/10/12 02:48:00;;;;;;;0.65;0.65;;;-0.30;99.90;;;;;;5055316;28;20234;-66
2022/10/12 02:50:26;;;;;;;0.60;0.60;;;-0.30;99.90;;;;;;5055143;28;20225;-65
2022/10/12 02:52:53;;;;;;;0.70;0.70;;;-0.30;99.90;;;;;;5055265;28;20637;-66
2022/10/12 02:55:19;;;;;;;0.60;0.60;;;-0.40;99.90;;;;;;5054966;28;20267;-64
2022/10/12 02:57:44;;;;;;;0.95;0.93;;;-0.50;99.90;;;;;;5055179;28;20194;-65
2022/10/12 03:00:11;;;;;;;0.70;0.70;;;-0.50;99.90;;;;;;5062021;28;20300;-66
2022/10/12 03:02:37;;;;;;;0.65;0.65;;;-0.60;99.90;;;;;;5052715;28;20704;-65
2022/10/12 03:05:03;;;;;;;0.70;0.70;;;-0.60;99.90;;;;;;5035087;28;20202;-66
2022/10/12 03:07:28;;;;;;;0.70;0.70;;;-0.70;99.90;;;;;;5034834;28;20534;-66
2022/10/12 03:09:54;;;;;;;0.80;0.80;;;-0.70;99.90;;;;;;5035081;28;20560;-64
2022/10/12 03:12:19;;;;;;;0.65;0.65;;;-0.80;99.90;;;;;;5034684;28;20230;-66
2022/10/12 03:14:45;;;;;;;0.77;0.77;;;-0.80;99.90;;;;;;5035062;28;20201;-66
2022/10/12 03:17:11;;;;;;;0.70;0.70;;;-0.80;99.90;;;;;;5034935;28;20202;-65
2022/10/12 03:19:38;;;;;;;0.55;0.55;;;-0.90;99.90;;;;;;5034755;28;20230;-67
2022/10/12 03:22:04;;;;;;;0.65;0.65;;;-0.90;99.90;;;;;;5034791;28;20193;-66
2022/10/12 03:24:30;;;;;;;0.70;0.70;;;-1.00;99.90;;;;;;5034618;28;20217;-65
2022/10/12 03:26:55;;;;;;;0.70;0.70;;;-1.00;99.90;;;;;;5034513;28;20194;-66
2022/10/12 03:29:21;;;;;;;0.80;0.80;;;-1.00;99.90;;;;;;5045051;28;20274;-66
2022/10/12 03:31:47;;;;;;;0.70;0.70;;;-1.00;99.90;;;;;;5054674;28;20201;-66
2022/10/12 03:34:12;;;;;;;0.70;0.70;;;-1.10;99.90;;;;;;5053285;28;20205;-66
2022/10/12 03:36:38;;;;;;;0.70;0.70;;;-1.10;99.90;;;;;;5054217;28;20788;-65
2022/10/12 03:39:04;;;;;;;0.70;0.70;;;-1.10;99.90;;;;;;5036591;28;20197;-64
2022/10/12 03:41:29;;;;;;;0.70;0.70;;;-1.10;99.90;;;;;;5054152;28;20201;-66
2022/10/12 03:43:55;;;;;;;0.90;0.90;;;-1.20;99.90;;;;;;5036458;28;20210;-65
2022/10/12 03:46:20;;;;;;;0.73;0.73;;;-1.10;99.90;;;;;;5036208;28;20287;-65
2022/10/12 03:48:46;;;;;;;0.68;0.68;;;-1.20;99.90;;;;;;5054234;28;20272;-65
2022/10/12 03:51:12;;;;;;;0.80;0.80;;;-1.20;99.90;;;;;;5053413;28;20213;-65
2022/10/12 03:53:37;;;;;;;0.80;0.80;;;-1.30;99.90;;;;;;5052838;28;20237;-63
2022/10/12 03:56:03;;;;;;;0.70;0.70;;;-1.30;99.90;;;;;;5057413;28;20663;-67
2022/10/12 03:58:29;;;;;;;0.70;0.70;;;-1.40;99.90;;;;;;5073902;28;20566;-65
2022/10/12 04:00:55;;;;;;;0.60;0.60;;;-1.40;99.90;;;;;;5073970;28;20220;-66
2022/10/12 04:03:20;;;;;;;0.70;0.70;;;-1.40;99.90;;;;;;5073676;28;20255;-65
2022/10/12 04:05:57;;;;;;;1.05;1.05;;;-1.40;99.90;;;;;;5073905;28;20192;-65
2022/10/12 04:08:25;;;;;;;0.80;0.80;;;-1.40;99.90;;;;;;5073589;28;20272;-65
2022/10/12 04:10:51;;;;;;;0.82;0.82;;;-1.40;99.90;;;;;;5073748;28;20196;-65
2022/10/12 04:13:18;;;;;;;1.35;1.20;;;-1.50;99.90;;;;;;5073620;28;20719;-65
2022/10/12 04:15:44;;;;;;;0.82;0.82;;;-1.50;99.90;;;;;;5073619;28;20200;-65
2022/10/12 04:18:10;;;;;;;0.70;0.70;;;-1.50;99.90;;;;;;5055715;28;20276;-65
2022/10/12 04:20:35;;;;;;;0.63;0.63;;;-1.50;99.90;;;;;;5073380;28;20195;-65
2022/10/12 04:23:01;;;;;;;0.65;0.65;;;-1.50;99.90;;;;;;5073594;28;20185;-65
2022/10/12 04:25:27;;;;;;;0.70;0.70;;;-1.50;99.90;;;;;;5063525;28;20215;-65
2022/10/12 04:27:52;;;;;;;0.70;0.70;;;-1.50;99.90;;;;;;5053596;28;20197;-66
2022/10/12 04:30:18;;;;;;;0.70;0.70;;;-1.40;99.90;;;;;;5053326;28;20193;-67
2022/10/12 04:32:44;;;;;;;0.70;0.70;;;-1.40;99.90;;;;;;5053670;28;20212;-66
2022/10/12 04:35:10;;;;;;;0.70;0.70;;;-1.40;99.90;;;;;;5053391;28;20224;-66
2022/10/12 04:37:36;;;;;;;0.60;0.60;;;-1.40;99.90;;;;;;5052735;28;20185;-65
2022/10/12 04:40:02;;;;;;;1.50;1.27;;;-1.40;99.90;;;;;;5053079;28;20189;-64
2022/10/12 04:42:28;;;;;;;0.70;0.70;;;-1.40;99.90;;;;;;5035194;28;20197;-65
2022/10/12 04:44:53;;;;;;;0.60;0.60;;;-1.50;99.90;;;;;;5053192;28;20216;-64
2022/10/12 04:47:19;;;;;;;0.70;0.70;;;-1.50;99.90;;;;;;5052979;28;20194;-65
2022/10/12 04:49:44;;;;;;;0.80;0.80;;;-1.50;99.90;;;;;;5053361;28;20197;-65
2022/10/12 04:52:10;;;;;;;0.60;0.60;;;-1.50;99.90;;;;;;5056300;28;20675;-65
2022/10/12 04:54:36;;;;;;;0.80;0.80;;;-1.50;99.90;;;;;;5052037;28;20203;-65
2022/10/12 04:57:02;;;;;;;0.75;0.75;;;-1.50;99.90;;;;;;5052982;28;20184;-64
2022/10/12 04:59:27;;;;;;;0.80;0.80;;;-1.50;99.90;;;;;;5052812;28;20243;-66
2022/10/12 05:01:53;;;;;;;0.70;0.70;;;-1.50;99.90;;;;;;5051579;28;20556;-66
2022/10/12 05:04:19;;;;;;;0.70;0.70;;;-1.40;99.90;;;;;;5052660;28;20213;-66
2022/10/12 05:06:45;;;;;;;0.73;0.73;;;-1.40;99.90;;;;;;5052877;28;20193;-65
2022/10/12 05:09:10;;;;;;;0.60;0.60;;;-1.40;99.90;;;;;;5052827;28;20228;-65
2022/10/12 05:11:36;;;;;;;0.60;0.60;;;-1.40;99.90;;;;;;5052494;28;20223;-65
2022/10/12 05:14:02;;;;;;;0.70;0.70;;;-1.40;99.90;;;;;;5052715;28;20205;-65
2022/10/12 05:16:28;;;;;;;0.60;0.60;;;-1.40;99.90;;;;;;5052492;28;20514;-65
2022/10/12 05:18:53;;;;;;;0.70;0.70;;;-1.40;99.90;;;;;;5052788;28;20205;-65
2022/10/12 05:21:19;;;;;;;0.70;0.70;;;-1.50;99.90;;;;;;5034478;28;20228;-65
2022/10/12 05:23:49;;;;;;;0.65;0.65;;;-1.50;99.90;;;;;;5052765;28;20211;-65
2022/10/12 05:26:15;;;;;;;0.68;0.68;;;-1.50;99.90;;;;;;5051206;28;20347;-65
2022/10/12 05:28:41;;;;;;;0.70;0.70;;;-1.50;99.90;;;;;;5052178;28;20280;-65
2022/10/12 05:31:06;;;;;;;1.33;1.23;;;-1.50;99.90;;;;;;5052595;28;20204;-66
2022/10/12 05:33:32;;;;;;;0.70;0.70;;;-1.50;99.90;;;;;;5052057;28;20607;-65
2022/10/12 05:35:58;;;;;;;0.70;0.70;;;-1.50;99.90;;;;;;5052619;28;20189;-65
2022/10/12 05:38:23;;;;;;;0.80;0.80;;;-1.50;99.90;;;;;;5052352;28;20201;-65
2022/10/12 05:40:49;;;;;;;0.63;0.63;;;-1.50;99.90;;;;;;5050954;28;20197;-66
2022/10/12 05:43:15;;;;;;;0.68;0.68;;;-1.50;99.90;;;;;;5052347;28;20205;-66
2022/10/12 05:45:41;;;;;;;0.90;0.90;;;-1.60;99.90;;;;;;5052380;28;20206;-65
2022/10/12 05:48:07;;;;;;;0.70;0.70;;;-1.50;99.90;;;;;;5052474;28;20251;-65
2022/10/12 05:50:33;;;;;;;0.70;0.70;;;-1.50;99.90;;;;;;5053742;28;20193;-65
2022/10/12 05:52:59;;;;;;;0.70;0.70;;;-1.50;99.90;;;;;;5056497;28;20273;-65
2022/10/12 05:55:25;;;;;;;0.63;0.63;;;-1.50;99.90;;;;;;5056221;28;20194;-65
2022/10/12 05:57:50;;;;;;;0.73;0.73;;;-1.50;99.90;;;;;;5056036;28;20190;-64
2022/10/12 06:00:16;;;;;;;0.93;0.93;;;-1.50;99.90;;;;;;5056273;28;20281;-66
2022/10/12 06:02:42;;;;;;;0.50;0.50;;;-1.50;99.90;;;;;;5056058;28;20539;-64
2022/10/12 06:05:08;;;;;;;0.70;0.70;;;-1.40;99.90;;;;;;5056086;28;20201;-64
2022/10/12 06:07:34;;;;;;;0.60;0.60;;;-1.40;99.90;;;;;;5038019;28;20276;-65
2022/10/12 06:09:59;;;;;;;0.57;0.57;;;-1.40;99.90;;;;;;5056192;28;20209;-66
2022/10/12 06:12:25;;;;;;;0.60;0.60;;;-1.30;99.90;;;;;;5055875;28;20225;-64
2022/10/12 06:14:51;;;;;;;0.60;0.60;;;-1.30;99.90;;;;;;5056032;28;20200;-65
2022/10/12 06:17:17;;;;;;;0.70;0.70;;;-1.20;99.90;;;;;;5055921;28;20691;-65
2022/10/12 06:19:43;;;;;;;0.60;0.60;;;-1.10;99.90;;;;;;5055818;28;20247;-65
2022/10/12 06:22:08;;;;;;;0.70;0.70;;;-1.10;99.90;;;;;;5055924;28;20277;-65
2022/10/12 06:24:34;;;;;;;0.70;0.70;;;-1.00;99.90;;;;;;5053013;28;20255;-64
2022/10/12 06:27:00;;;;;;;0.52;0.52;;;-1.00;99.90;;;;;;5034553;28;20252;-66
2022/10/12 06:29:26;;;;;;;3.75;2.15;;;-0.90;99.90;;;;;;5045804;28;20567;-66
2022/10/12 06:31:53;;;;;;;1.15;1.05;;;-0.80;99.90;;;;;;5055343;28;20201;-65
2022/10/12 06:34:18;;;;;;;0.60;0.60;;;-0.80;99.90;;;;;;5058611;28;20213;-66
2022/10/12 06:36:44;;;;;;;1.02;1.02;;;-0.80;99.90;;;;;;5037378;28;20212;-66
2022/10/12 06:39:10;;;;;;;3.00;1.05;;;-0.70;99.90;;;;;;5055566;28;20205;-64
2022/10/12 06:41:36;;;;;;;0.70;0.70;;;-0.60;99.90;;;;;;5055487;28;20280;-65
2022/10/12 06:44:02;;;;;;;0.70;0.70;;;-0.50;99.90;;;;;;5055455;28;20294;-64
2022/10/12 06:46:28;;;;;;;0.60;0.60;;;-0.50;99.90;;;;;;5055017;28;20743;-65
2022/10/12 06:48:53;;;;;;;0.70;0.70;;;-0.30;99.90;;;;;;5055470;28;20272;-65
2022/10/12 06:51:19;;;;;;;0.73;0.73;;;-0.20;99.90;;;;;;5055353;28;20686;-66
2022/10/12 06:53:45;;;;;;;0.60;0.60;;;-0.20;99.90;;;;;;5055398;28;20193;-64
2022/10/12 06:56:11;;;;;;;0.70;0.70;;;-0.10;99.90;;;;;;5055304;28;20712;-66
2022/10/12 06:58:38;;;;;;;0.70;0.70;;;0.00;99.90;;;;;;5055105;28;20561;-64
2022/10/12 07:01:06;;;;;;;1.00;1.00;;;0.10;99.90;;;;;;5054507;28;20668;-65
2022/10/12 07:03:32;;;;;;;0.60;0.60;;;0.10;99.90;;;;;;5054663;28;20214;-64
2022/10/12 07:06:06;;;;;;;0.50;0.50;;;0.20;99.90;;;;;;5055076;28;20283;-65
2022/10/12 07:08:32;;;;;;;0.60;0.60;;;0.20;99.90;;;;;;5036975;28;20614;-66
2022/10/12 07:11:06;;;;;;;0.90;0.90;;;0.20;99.90;;;;;;5055069;28;20707;-64
2022/10/12 07:13:32;;;;;;;0.68;0.68;;;0.30;99.90;;;;;;5015140;28;20257;-65
2022/10/12 07:15:58;;;;;;;1.60;1.50;;;0.40;99.90;;;;;;5015125;28;20202;-65
2022/10/12 07:18:24;;;;;;;0.60;0.60;;;0.40;99.90;;;;;;5015038;28;20187;-66
2022/10/12 07:20:50;;;;;;;2.22;1.83;;;0.50;99.90;;;;;;5015212;28;20262;-65
2022/10/12 07:23:16;;;;;;;0.80;0.80;;;0.50;99.90;;;;;;5015061;28;20195;-66
2022/10/12 07:25:51;;;;;;;0.70;0.70;;;0.60;99.90;;;;;;5014931;28;20249;-64
2022/10/12 07:28:18;;;;;;;0.90;0.90;;;0.60;99.90;;;;;;5014881;28;20254;-66
2022/10/12 07:30:44;;;;;;;0.50;0.50;;;0.70;99.90;;;;;;5034317;28;20224;-65
2022/10/12 07:33:11;;;;;;;1.05;1.00;;;0.70;99.90;;;;;;5034712;28;20199;-65
2022/10/12 07:35:36;;;;;;;0.90;0.90;;;0.80;99.90;;;;;;5034464;28;20642;-65
2022/10/12 07:38:03;;;;;;;0.90;0.90;;;0.80;99.90;;;;;;5021398;28;20261;-65
2022/10/12 07:40:29;;;;;;;0.70;0.70;;;1.00;99.90;;;;;;5013340;28;20626;-66
2022/10/12 07:42:54;;;;;;;0.70;0.70;;;1.10;99.90;;;;;;5014682;28;20199;-65
2022/10/12 07:45:20;;;;;;;2.92;1.15;;;1.20;99.90;;;;;;5014535;28;20269;-66
2022/10/12 07:47:46;;;;;;;0.60;0.60;;;1.30;99.90;;;;;;5014755;28;20236;-65
2022/10/12 07:50:13;;;;;;;2.85;1.88;;;1.50;99.90;;;;;;5014639;28;20195;-65
2022/10/12 07:52:39;;;;;;;0.50;0.50;;;1.60;99.90;;;;;;5014479;28;20197;-66
2022/10/12 07:55:06;;;;;;;0.60;0.60;;;1.90;99.90;;;;;;5014547;28;20198;-65
2022/10/12 07:57:32;;;;;;;0.60;0.60;;;2.10;99.90;;;;;;5014265;28;20198;-65
2022/10/12 07:59:57;;;;;;;0.80;0.80;;;2.30;99.90;;;;;;5014445;28;20723;-66
2022/10/12 08:02:23;;;;;;;0.93;0.93;;;2.60;99.90;;;;;;5014045;28;20222;-66
2022/10/12 08:04:49;;;;;;;0.60;0.60;;;2.70;99.90;;;;;;5014251;28;20292;-66
2022/10/12 08:07:14;;;;;;;0.65;0.65;;;2.90;99.90;;;;;;5012988;28;20227;-66
2022/10/12 08:09:40;;;;;;;0.60;0.60;;;3.20;99.90;;;;;;5014093;28;20198;-65
2022/10/12 08:12:06;;;;;;;0.60;0.60;;;3.40;99.90;;;;;;5031954;28;20236;-65
2022/10/12 08:14:32;;;;;;;0.50;0.50;;;3.70;99.90;;;;;;5052928;28;20559;-66
2022/10/12 08:16:57;;;;;;;1.80;1.27;;;3.90;99.90;;;;;;5053771;28;20194;-66
2022/10/12 08:19:23;;;;;;;0.77;0.77;;;4.10;99.90;;;;;;5053533;28;20618;-66
2022/10/12 08:21:49;;;;;;;1.27;1.17;;;4.30;99.90;;;;;;5053730;28;20212;-66
2022/10/12 08:24:15;;;;;;;2.55;2.03;;;4.50;99.90;;;;;;5035556;28;20232;-67
2022/10/12 08:26:40;;;;;;;0.80;0.80;;;4.70;99.90;;;;;;5070672;28;20197;-66
2022/10/12 08:29:08;;;;;;;0.50;0.50;;;4.80;99.90;;;;;;5073438;28;20235;-65
2022/10/12 08:31:35;;;;;;;0.70;0.70;;;5.00;99.90;;;;;;5055380;28;20201;-66
2022/10/12 08:34:00;;;;;;;0.60;0.60;;;5.20;99.90;;;;;;5062369;28;20255;-67
2022/10/12 08:36:26;;;;;;;0.60;0.60;;;5.50;99.90;;;;;;5053216;28;20603;-66
2022/10/12 08:38:54;;;;;;;1.58;1.30;;;5.70;99.90;;;;;;5053161;28;20194;-65
2022/10/12 08:41:46;;;;;;;1.17;1.08;;;6.00;99.90;;;;;;5053155;28;20197;-66
2022/10/12 08:44:42;;;;;;;0.65;0.65;;;6.20;99.90;;;;;;5050210;28;20295;-66
2022/10/12 08:47:16;;;;;;;1.02;1.00;;;6.40;99.90;;;;;;5051960;28;20194;-66
2022/10/12 08:49:44;;;;;;;0.60;0.60;;;6.70;99.90;;;;;;5053000;28;20255;-64
2022/10/12 08:52:22;;;;;;;0.60;0.60;;;6.80;99.90;;;;;;5035305;28;20280;-65
2022/10/12 08:54:48;;;;;;;0.55;0.55;;;7.00;99.90;;;;;;5053133;28;20595;-64
2022/10/12 08:57:18;;;;;;;0.95;0.95;;;7.20;99.90;;;;;;5052993;28;20247;-65
2022/10/12 08:59:45;;;;;;;0.60;0.60;;;7.40;99.90;;;;;;5052879;28;20687;-65
2022/10/12 09:02:30;;;;;;;0.70;0.70;;;7.50;99.90;;;;;;5051746;28;20656;-66
2022/10/12 09:05:37;;;;;;;0.60;0.60;;;7.70;99.90;;;;;;5052911;28;20223;-67
2022/10/12 09:08:10;;;;;;;0.63;0.63;;;7.90;99.90;;;;;;5052360;28;20205;-65
2022/10/12 09:10:44;;;;;;;0.70;0.70;;;8.00;99.90;;;;;;5052670;28;20201;-66
2022/10/12 09:13:41;;;;;;;0.60;0.60;;;8.30;99.90;;;;;;5052570;28;20716;-66
2022/10/12 09:16:21;;;;;;;0.90;0.80;;;8.60;99.90;;;;;;5052717;28;20703;-66
2022/10/12 09:18:52;;;;;;;0.73;0.73;;;8.50;99.90;;;;;;5052790;28;20238;-66
2022/10/12 09:21:20;;;;;;;0.93;0.80;;;8.80;99.90;;;;;;5056503;28;20298;-67
2022/10/12 09:23:47;;;;;;;0.70;0.70;;;9.10;99.90;;;;;;5069045;28;20208;-66
2022/10/12 09:26:39;;;;;;;1.58;1.23;;;9.30;99.90;;;;;;5052640;28;20202;-67
2022/10/12 09:29:20;;;;;;;1.08;1.00;;;9.60;99.90;;;;;;5048513;28;20785;-66
2022/10/12 09:32:19;;;;;;;0.70;0.70;;;9.90;99.90;;;;;;5052654;28;20189;-66
2022/10/12 09:34:47;;;;;;;0.80;0.80;;;10.10;99.90;;;;;;5052458;28;20198;-66
2022/10/12 09:37:28;;;;;;;1.67;1.00;;;10.20;99.90;;;;;;5046470;28;20275;-69
2022/10/12 09:39:58;;;;;;;0.98;0.88;;;10.40;99.90;;;;;;5038509;28;20228;-67
2022/10/12 09:42:24;;;;;;;0.60;0.60;;;10.60;99.90;;;;;;5035776;28;20205;-67
2022/10/12 09:45:02;;;;;;;0.60;0.60;;;10.70;99.90;;;;;;5034159;28;20210;-66
2022/10/12 09:47:30;;;;;;;0.75;0.75;;;10.80;99.90;;;;;;5033170;28;20552;-67
2022/10/12 09:50:06;;;;;;;0.50;0.50;;;10.90;99.90;;;;;;5032647;28;20671;-65
2022/10/12 09:52:35;;;;;;;0.88;0.88;;;11.20;99.90;;;;;;5032437;28;20563;-66
2022/10/12 09:55:17;;;;;;;1.23;1.17;;;11.50;99.90;;;;;;5032517;28;20186;-67
2022/10/12 09:57:53;;;;;;;0.60;0.60;;;11.80;99.90;;;;;;5032318;28;20674;-66
2022/10/12 10:00:31;;;;;;;0.50;0.50;;;12.00;99.90;;;;;;5032325;28;20198;-67
2022/10/12 10:02:58;;;;;;;0.65;0.65;;;12.40;99.90;;;;;;5032440;28;20218;-67
2022/10/12 10:05:27;;;;;;;0.60;0.60;;;12.50;99.90;;;;;;5032098;28;20576;-67
2022/10/12 10:08:22;;;;;;;0.50;0.50;;;12.60;99.90;;;;;;5032358;28;20194;-66
2022/10/12 10:10:52;;;;;;;0.60;0.60;;;12.40;99.90;;;;;;5032339;28;20197;-67
2022/10/12 10:13:20;;;;;;;0.60;0.60;;;12.60;99.90;;;;;;5031997;28;20265;-67
2022/10/12 10:15:49;;;;;;;0.50;0.50;;;12.70;99.90;;;;;;5032451;28;20559;-67
2022/10/12 10:18:24;;;;;;;0.55;0.55;;;12.90;99.90;;;;;;5041767;28;20204;-67
2022/10/12 10:20:55;;;;;;;0.82;0.77;;;13.10;99.90;;;;;;5034234;28;20193;-66
2022/10/12 10:23:38;;;;;;;0.50;0.50;;;13.40;99.90;;;;;;5051891;28;20561;-66
2022/10/12 10:26:08;;;;;;;0.70;0.70;;;13.50;99.90;;;;;;5051844;28;20565;-67
2022/10/12 10:28:39;;;;;;;0.50;0.50;;;13.60;99.90;;;;;;5051766;28;20190;-67
2022/10/12 10:31:14;;;;;;;0.50;0.50;;;13.60;99.90;;;;;;5051008;28;20790;-65
2022/10/12 10:33:41;;;;;;;0.68;0.60;;;13.80;99.90;;;;;;5051815;28;20197;-66
2022/10/12 10:36:21;;;;;;;0.57;0.57;;;13.60;99.90;;;;;;5052612;28;20198;-67
2022/10/12 10:38:53;;;;;;;0.50;0.50;;;13.60;99.90;;;;;;5036299;28;20200;-68
2022/10/12 10:41:19;;;;;;;0.50;0.50;;;13.50;99.90;;;;;;5034338;28;20226;-67
2022/10/12 10:43:48;;;;;;;0.65;0.65;;;13.30;99.90;;;;;;5035518;28;20194;-67
2022/10/12 10:46:21;;;;;;;0.60;0.60;;;13.30;99.90;;;;;;5035506;28;20186;-67
2022/10/12 10:48:55;;;;;;;0.60;0.60;;;13.50;99.90;;;;;;5036357;28;20269;-67
2022/10/12 10:51:45;;;;;;;0.47;0.47;;;13.60;99.90;;;;;;5036340;28;20194;-67
2022/10/12 10:54:24;;;;;;;0.40;0.40;;;13.50;99.90;;;;;;5036493;28;20190;-67
2022/10/12 10:56:54;;;;;;;0.50;0.50;;;13.50;99.90;;;;;;5033986;28;20205;-68
2022/10/12 10:59:37;;;;;;;0.50;0.50;;;13.30;99.90;;;;;;5035138;28;20684;-68
2022/10/12 11:02:17;;;;;;;0.47;0.47;;;13.60;99.90;;;;;;5035176;28;20194;-67
2022/10/12 11:04:48;;;;;;;0.30;0.30;;;13.80;99.90;;;;;;5035049;28;20202;-67
2022/10/12 11:07:21;;;;;;;0.40;0.40;;;14.20;99.90;;;;;;5035028;28;20190;-67
2022/10/12 11:09:53;;;;;;;2.05;0.90;;;14.40;99.90;;;;;;5035342;28;20599;-67
2022/10/12 11:12:24;;;;;;;0.40;0.40;;;14.40;99.90;;;;;;5034842;28;20303;-68
2022/10/12 11:15:27;;;;;;;0.40;0.40;;;14.50;99.90;;;;;;5059667;28;20211;-68
2022/10/12 11:18:04;;;;;;;0.40;0.40;;;14.70;99.90;;;;;;5013169;28;20297;-67
2022/10/12 11:20:56;;;;;;;0.40;0.40;;;14.40;99.90;;;;;;5012752;28;20241;-68
2022/10/12 11:23:37;;;;;;;0.50;0.50;;;14.40;99.90;;;;;;4994279;28;20331;-66
2022/10/12 11:26:11;;;;;;;0.40;0.40;;;14.40;99.90;;;;;;4993263;28;20215;-67
2022/10/12 11:28:37;;;;;;;0.40;0.40;;;14.80;99.90;;;;;;4993118;28;20205;-66
2022/10/12 11:31:05;;;;;;;0.40;0.40;;;15.10;99.90;;;;;;4994144;28;20279;-64
2022/10/12 11:33:37;;;;;;;0.40;0.40;;;15.30;99.90;;;;;;4981365;28;20597;-64
2022/10/12 11:36:07;;;;;;;0.40;0.40;;;15.30;99.90;;;;;;4993280;28;20536;-66
2022/10/12 11:38:43;;;;;;;0.30;0.30;;;15.20;99.90;;;;;;4992732;28;20208;-66
2022/10/12 11:41:59;;;;;;;0.40;0.40;;;15.30;99.90;;;;;;4980271;28;20206;-66
2022/10/12 11:44:40;;;;;;;0.30;0.30;;;15.40;99.90;;;;;;4981898;28;20350;-67
2022/10/12 11:47:15;;;;;;;0.55;0.55;;;15.60;99.90;;;;;;4978159;28;20200;-68
2022/10/12 11:50:35;;;;;;;0.38;0.38;;;15.60;99.90;;;;;;4993654;28;20218;-68
2022/10/12 11:53:27;;;;;;;0.40;0.40;;;15.60;99.90;;;;;;4976549;28;20220;-68
2022/10/12 11:56:33;;;;;;;0.40;0.40;;;15.20;99.90;;;;;;4954898;29;20208;-67
2022/10/12 11:59:15;;;;;;;0.40;0.40;;;15.30;99.90;;;;;;4964269;28;20207;-67
2022/10/12 12:02:28;;;;;;;0.35;0.35;;;15.40;99.90;;;;;;4973754;28;20217;-68
2022/10/12 12:04:55;;;;;;;0.40;0.40;;;15.50;99.90;;;;;;4958573;28;20235;-68
2022/10/12 12:07:41;;;;;;;0.30;0.30;;;15.20;99.90;;;;;;4973393;28;20208;-68
2022/10/12 12:10:25;;;;;;;0.40;0.40;;;15.40;99.90;;;;;;4977428;28;20407;-68
2022/10/12 12:13:21;;;;;;;0.80;0.60;;;15.60;99.90;;;;;;4992149;28;20231;-67
2022/10/12 12:15:48;;;;;;;0.30;0.30;;;15.70;99.90;;;;;;4992640;28;20283;-67
2022/10/12 12:18:14;;;;;;;0.30;0.30;;;15.90;99.90;;;;;;4988045;28;20200;-69
2022/10/12 12:20:42;;;;;;;0.40;0.40;;;16.00;99.90;;;;;;4972973;28;20216;-67
2022/10/12 12:23:23;;;;;;;0.32;0.32;;;16.20;99.90;;;;;;4972961;28;20618;-67
2022/10/12 12:26:09;;;;;;;0.40;0.40;;;15.90;99.90;;;;;;4983885;28;20225;-67
2022/10/12 12:28:40;;;;;;;8.18;0.63;;;15.60;99.90;;;;;;5042368;28;20209;-67
2022/10/12 12:31:22;;;;;;;0.30;0.30;;;15.40;99.90;;;;;;5053549;28;20671;-67
2022/10/12 12:33:59;;;;;;;0.30;0.30;;;15.20;99.90;;;;;;5053367;28;20205;-66
2022/10/12 12:36:39;;;;;;;0.40;0.40;;;14.90;99.90;;;;;;5053710;28;20201;-67
2022/10/12 12:39:19;;;;;;;0.35;0.35;;;14.60;99.90;;;;;;5034130;28;20751;-66
2022/10/12 12:41:45;;;;;;;0.38;0.38;;;14.60;99.90;;;;;;5033084;28;20204;-68
2022/10/12 12:44:32;;;;;;;0.40;0.40;;;14.50;99.90;;;;;;5033603;28;20198;-68
2022/10/12 12:47:01;;;;;;;0.35;0.35;;;14.50;99.90;;;;;;5034159;28;20555;-67
2022/10/12 12:49:44;;;;;;;0.30;0.30;;;14.40;99.90;;;;;;5031847;28;20199;-67
2022/10/12 12:52:10;;;;;;;0.47;0.47;;;14.20;99.90;;;;;;5033179;28;20660;-67
2022/10/12 12:54:59;;;;;;;0.40;0.40;;;14.10;99.90;;;;;;5033049;28;20261;-67
2022/10/12 12:57:44;;;;;;;0.32;0.32;;;13.80;99.90;;;;;;5015300;28;20579;-67
2022/10/12 13:00:22;;;;;;;0.40;0.40;;;13.20;99.90;;;;;;5033316;28;20225;-67
2022/10/12 13:03:14;;;;;;;0.40;0.40;;;12.90;99.90;;;;;;5034828;28;20273;-68
2022/10/12 13:06:17;;;;;;;0.50;0.50;;;12.60;99.90;;;;;;5034834;28;20554;-65
2022/10/12 13:09:01;;;;;;;0.57;0.57;;;12.60;99.90;;;;;;5033419;28;20190;-66
2022/10/12 13:11:39;;;;;;;0.50;0.50;;;12.30;99.90;;;;;;5032915;28;20222;-68
2022/10/12 13:14:17;;;;;;;0.40;0.40;;;12.20;99.90;;;;;;5033693;28;20198;-67